createdAt,value
2018-11-10T00:02:15.606Z,45.27
2018-11-10T00:05:20.486Z,47.10
2018-11-10T00:08:24.690Z,44.10
2018-11-10T00:11:28.782Z,45.57
2018-11-10T00:14:32.918Z,46.40
2018-11-10T00:17:37.069Z,45.23
2018-11-10T00:20:41.215Z,42.00
2018-11-10T00:23:45.369Z,46.10
2018-11-10T00:26:49.542Z,46.27
2018-11-10T00:29:53.681Z,45.00
2018-11-10T00:32:57.847Z,39.67
2018-11-10T00:36:02.008Z,37.27
2018-11-10T00:39:08.448Z,38.27
2018-11-10T00:42:12.607Z,38.93
2018-11-10T00:45:16.751Z,40.93
2018-11-10T00:48:20.897Z,40.37
2018-11-10T00:51:25.035Z,35.40
2018-11-10T00:54:29.270Z,33.50
2018-11-10T00:57:33.435Z,33.73
2018-11-10T01:00:38.395Z,38.60
2018-11-10T01:03:42.555Z,37.70
2018-11-10T01:06:46.702Z,31.80
2018-11-10T01:09:50.859Z,33.67
2018-11-10T01:12:55.023Z,28.53
2018-11-10T01:15:59.158Z,34.73
2018-11-10T01:19:03.315Z,36.10
2018-11-10T01:22:07.901Z,33.57
2018-11-10T01:25:12.337Z,37.83
2018-11-10T01:28:16.474Z,35.43
2018-11-10T01:31:20.618Z,37.77
2018-11-10T01:34:24.780Z,34.73
2018-11-10T01:37:28.918Z,34.23
2018-11-10T01:40:33.065Z,35.03
2018-11-10T01:43:37.217Z,36.43
2018-11-10T01:46:41.362Z,36.83
2018-11-10T01:49:45.546Z,45.57
2018-11-10T01:52:49.683Z,46.57
2018-11-10T01:55:53.825Z,46.00
2018-11-10T01:58:59.581Z,46.97
2018-11-10T02:02:03.799Z,46.97
2018-11-10T02:05:07.999Z,49.57
2018-11-10T02:08:12.159Z,52.80
2018-11-10T02:11:16.306Z,46.93
2018-11-10T02:14:20.458Z,42.90
2018-11-10T02:17:24.593Z,47.43
2018-11-10T02:20:28.751Z,46.53
2018-11-10T02:23:32.909Z,50.57
2018-11-10T02:26:37.014Z,51.20
2018-11-10T02:29:41.124Z,37.43
2018-11-10T02:32:45.234Z,37.40
2018-11-10T02:35:49.346Z,39.53
2018-11-10T02:38:53.540Z,40.83
2018-11-10T02:41:57.588Z,36.53
2018-11-10T02:45:01.707Z,35.03
2018-11-10T02:48:05.852Z,38.13
2018-11-10T02:51:09.973Z,34.27
2018-11-10T02:54:14.076Z,32.93
2018-11-10T02:57:18.183Z,32.40
2018-11-10T03:00:22.293Z,41.10
2018-11-10T03:03:26.402Z,34.37
2018-11-10T03:06:30.504Z,44.50
2018-11-10T03:09:34.602Z,39.17
2018-11-10T03:12:39.571Z,40.70
2018-11-10T03:15:43.717Z,37.10
2018-11-10T03:18:47.840Z,35.20
2018-11-10T03:21:51.942Z,43.47
2018-11-10T03:24:56.063Z,40.80
2018-11-10T03:28:00.191Z,38.73
2018-11-10T03:31:04.303Z,40.47
2018-11-10T03:34:08.447Z,41.23
2018-11-10T03:37:12.587Z,42.03
2018-11-10T03:40:16.720Z,39.07
2018-11-10T03:43:20.851Z,40.80
2018-11-10T03:46:26.181Z,44.57
2018-11-10T03:49:30.303Z,39.83
2018-11-10T03:52:34.430Z,37.50
2018-11-10T03:55:38.564Z,37.73
2018-11-10T03:58:42.703Z,38.73
2018-11-10T04:01:46.839Z,38.07
2018-11-10T04:04:50.978Z,41.43
2018-11-10T04:07:55.107Z,43.93
2018-11-10T04:10:59.247Z,44.77
2018-11-10T04:14:03.383Z,43.63
2018-11-10T04:17:07.498Z,45.90
2018-11-10T04:20:11.675Z,40.97
2018-11-10T04:23:15.802Z,44.77
2018-11-10T04:26:19.935Z,44.40
2018-11-10T04:29:24.196Z,39.80
2018-11-10T04:32:28.324Z,40.77
2018-11-10T04:35:32.466Z,46.73
2018-11-10T04:38:36.582Z,45.53
2018-11-10T04:41:40.691Z,51.90
2018-11-10T04:44:44.823Z,47.93
2018-11-10T04:47:48.939Z,43.87
2018-11-10T04:50:53.055Z,48.07
2018-11-10T04:53:57.213Z,52.33
2018-11-10T04:57:01.324Z,51.30
2018-11-10T05:00:08.133Z,53.37
2018-11-10T05:03:12.244Z,49.50
2018-11-10T05:06:16.377Z,48.23
2018-11-10T05:09:20.528Z,43.40
2018-11-10T05:12:24.634Z,44.37
2018-11-10T05:15:28.738Z,43.83
2018-11-10T05:18:32.854Z,41.40
2018-11-10T05:21:36.960Z,43.43
2018-11-10T05:24:41.075Z,39.87
2018-11-10T05:27:45.197Z,38.47
2018-11-10T05:30:49.317Z,42.00
2018-11-10T05:33:53.439Z,38.93
2018-11-10T05:36:57.542Z,42.50
2018-11-10T05:40:01.667Z,38.03
2018-11-10T05:43:05.795Z,37.13
2018-11-10T05:46:09.921Z,38.20
2018-11-10T05:49:14.297Z,38.77
2018-11-10T05:52:18.383Z,40.90
2018-11-10T05:55:22.495Z,34.97
2018-11-10T05:58:26.599Z,33.63
2018-11-10T06:01:30.706Z,38.10
2018-11-10T06:04:34.820Z,33.67
2018-11-10T06:07:38.927Z,29.23
2018-11-10T06:10:43.034Z,29.47
2018-11-10T06:13:47.154Z,28.57
2018-11-10T06:16:51.262Z,28.93
2018-11-10T06:19:55.367Z,24.30
2018-11-10T06:22:59.511Z,28.20
2018-11-10T06:26:03.734Z,27.13
2018-11-10T06:29:07.847Z,26.97
2018-11-10T06:32:11.961Z,29.00
2018-11-10T06:35:16.073Z,25.67
2018-11-10T06:38:20.246Z,27.53
2018-11-10T06:41:24.413Z,26.33
2018-11-10T06:44:28.466Z,30.20
2018-11-10T06:47:32.567Z,27.20
2018-11-10T06:50:36.683Z,27.17
2018-11-10T06:53:40.795Z,27.13
2018-11-10T06:56:44.901Z,25.80
2018-11-10T06:59:49.014Z,28.20
2018-11-10T07:02:53.163Z,28.70
2018-11-10T07:05:57.278Z,31.17
2018-11-10T07:09:01.394Z,29.43
2018-11-10T07:12:05.822Z,33.20
2018-11-10T07:15:10.119Z,26.93
2018-11-10T07:18:14.354Z,32.57
2018-11-10T07:21:18.334Z,35.17
2018-11-10T07:24:22.443Z,30.93
2018-11-10T07:27:26.555Z,29.97
2018-11-10T07:30:30.670Z,32.90
2018-11-10T07:33:34.800Z,30.57
2018-11-10T07:36:38.940Z,31.53
2018-11-10T07:39:43.102Z,29.73
2018-11-10T07:42:47.225Z,32.07
2018-11-10T07:45:51.326Z,28.80
2018-11-10T07:48:55.566Z,27.40
2018-11-10T07:51:59.695Z,26.60
2018-11-10T07:55:03.847Z,28.90
2018-11-10T07:58:07.971Z,30.00
2018-11-10T08:01:12.107Z,27.03
2018-11-10T08:04:16.250Z,27.77
2018-11-10T08:07:20.362Z,34.60
2018-11-10T08:10:24.497Z,25.50
2018-11-10T08:13:28.606Z,28.60
2018-11-10T08:16:32.759Z,29.27
2018-11-10T08:19:36.983Z,29.87
2018-11-10T08:22:41.360Z,29.07
2018-11-10T08:25:45.499Z,28.73
2018-11-10T08:28:49.633Z,24.70
2018-11-10T08:31:53.795Z,27.13
2018-11-10T08:34:57.926Z,28.37
2018-11-10T08:38:02.074Z,25.03
2018-11-10T08:41:06.876Z,28.23
2018-11-10T08:44:11.013Z,25.63
2018-11-10T08:47:15.141Z,28.57
2018-11-10T08:50:19.287Z,27.70
2018-11-10T08:53:23.410Z,23.80
2018-11-10T08:56:27.531Z,25.53
2018-11-10T08:59:32.302Z,27.47
2018-11-10T09:02:36.544Z,27.37
2018-11-10T09:05:40.722Z,21.63
2018-11-10T09:08:44.934Z,24.77
2018-11-10T09:11:49.131Z,21.40
2018-11-10T09:14:53.287Z,24.07
2018-11-10T09:17:57.429Z,22.70
2018-11-10T09:21:01.578Z,24.23
2018-11-10T09:24:06.151Z,27.60
2018-11-10T09:27:10.298Z,23.33
2018-11-10T09:30:15.715Z,25.60
2018-11-10T09:33:19.872Z,27.27
2018-11-10T09:36:24.040Z,25.57
2018-11-10T09:39:28.155Z,28.43
2018-11-10T09:42:32.391Z,24.43
2018-11-10T09:45:36.403Z,22.90
2018-11-10T09:48:40.583Z,24.03
2018-11-10T09:51:44.700Z,25.67
2018-11-10T09:54:48.813Z,21.73
2018-11-10T09:57:53.223Z,20.70
2018-11-10T10:00:57.408Z,19.97
2018-11-10T10:04:01.446Z,21.67
2018-11-10T10:07:05.638Z,19.77
2018-11-10T10:10:12.235Z,19.13
2018-11-10T10:13:16.419Z,17.13
2018-11-10T10:16:20.614Z,17.87
2018-11-10T10:19:24.687Z,24.93
2018-11-10T10:22:28.819Z,15.97
2018-11-10T10:25:32.950Z,13.97
2018-11-10T10:28:37.177Z,14.67
2018-11-10T10:31:41.183Z,16.83
2018-11-10T10:34:45.486Z,18.33
2018-11-10T10:37:50.475Z,16.37
2018-11-10T10:40:54.618Z,16.73
2018-11-10T10:43:58.755Z,14.67
2018-11-10T10:47:02.903Z,18.63
2018-11-10T10:50:08.687Z,16.83
2018-11-10T10:53:12.827Z,19.47
2018-11-10T10:56:17.037Z,16.23
2018-11-10T10:59:21.094Z,18.03
2018-11-10T11:03:30.061Z,16.93
2018-11-10T11:06:34.182Z,18.20
2018-11-10T11:09:38.391Z,18.33
2018-11-10T11:12:42.459Z,20.17
2018-11-10T11:15:46.660Z,15.57
2018-11-10T11:18:50.748Z,22.63
2018-11-10T11:21:54.918Z,14.73
2018-11-10T11:24:59.040Z,19.90
2018-11-10T11:28:03.183Z,19.13
2018-11-10T11:31:07.388Z,15.37
2018-11-10T11:34:11.453Z,13.73
2018-11-10T11:37:15.602Z,11.43
2018-11-10T11:40:19.727Z,13.37
2018-11-10T11:43:23.890Z,12.13
2018-11-10T11:46:28.032Z,11.73
2018-11-10T11:49:32.183Z,14.17
2018-11-10T11:52:36.550Z,15.87
2018-11-10T11:55:40.696Z,14.13
2018-11-10T11:58:45.024Z,16.47
2018-11-10T12:01:49.174Z,13.73
2018-11-10T12:04:53.294Z,11.93
2018-11-10T12:07:57.447Z,15.83
2018-11-10T12:11:01.591Z,14.17
2018-11-10T12:14:05.890Z,15.70
2018-11-10T12:17:10.031Z,13.97
2018-11-10T12:20:15.331Z,12.90
2018-11-10T12:23:19.480Z,14.17
2018-11-10T12:26:23.637Z,14.07
2018-11-10T12:29:27.863Z,12.13
2018-11-10T12:32:32.014Z,13.80
2018-11-10T12:35:36.160Z,14.77
2018-11-10T12:38:40.320Z,13.23
2018-11-10T12:41:44.502Z,12.60
2018-11-10T12:44:48.661Z,15.73
2018-11-10T12:47:52.794Z,16.27
2018-11-10T12:50:56.943Z,16.10
2018-11-10T12:54:01.078Z,16.03
2018-11-10T12:57:05.351Z,17.37
2018-11-10T13:00:10.991Z,18.30
2018-11-10T13:03:15.118Z,15.67
2018-11-10T13:06:19.264Z,15.80
2018-11-10T13:09:23.414Z,15.50
2018-11-10T13:12:27.544Z,14.50
2018-11-10T13:15:31.678Z,11.07
2018-11-10T13:18:35.858Z,14.07
2018-11-10T13:21:40.557Z,12.03
2018-11-10T13:24:44.687Z,13.87
2018-11-10T13:27:48.847Z,13.17
2018-11-10T13:30:53.050Z,13.53
2018-11-10T13:33:57.122Z,8.97
2018-11-10T13:37:01.263Z,10.47
2018-11-10T13:40:05.560Z,9.20
2018-11-10T13:43:09.723Z,9.03
2018-11-10T13:46:13.850Z,8.47
2018-11-10T13:49:17.972Z,9.13
2018-11-10T13:52:22.470Z,8.70
2018-11-10T13:55:26.228Z,9.93
2018-11-10T13:58:30.363Z,13.17
2018-11-10T14:01:34.523Z,11.87
2018-11-10T14:04:38.657Z,8.87
2018-11-10T14:07:42.926Z,9.77
2018-11-10T14:10:47.061Z,12.13
2018-11-10T14:13:51.207Z,10.30
2018-11-10T14:16:55.358Z,8.83
2018-11-10T14:19:59.516Z,8.60
2018-11-10T14:23:03.650Z,10.37
2018-11-10T14:26:07.826Z,8.87
2018-11-10T14:29:11.914Z,9.20
2018-11-10T14:32:16.058Z,10.10
2018-11-10T14:35:20.203Z,8.23
2018-11-10T14:38:24.345Z,9.37
2018-11-10T14:41:28.490Z,11.87
2018-11-10T14:44:32.658Z,9.63
2018-11-10T14:47:36.807Z,11.13
2018-11-10T14:50:40.939Z,7.83
2018-11-10T14:53:45.084Z,6.77
2018-11-10T14:56:49.260Z,6.77
2018-11-10T14:59:53.383Z,7.43
2018-11-10T15:02:57.536Z,14.00
2018-11-10T15:06:01.670Z,7.80
2018-11-10T15:09:07.876Z,7.57
2018-11-10T15:12:12.085Z,7.63
2018-11-10T15:15:17.215Z,8.43
2018-11-10T15:18:21.536Z,6.37
2018-11-10T15:21:25.487Z,7.77
2018-11-10T15:24:29.628Z,9.70
2018-11-10T15:27:33.770Z,9.80
2018-11-10T15:30:37.900Z,8.73
2018-11-10T15:33:42.050Z,11.23
2018-11-10T15:36:46.344Z,11.33
2018-11-10T15:39:50.474Z,13.53
2018-11-10T15:42:54.643Z,11.03
2018-11-10T15:45:58.762Z,13.37
2018-11-10T15:49:02.923Z,12.27
2018-11-10T15:52:07.091Z,11.80
2018-11-10T15:55:11.970Z,14.10
2018-11-10T15:58:16.104Z,8.93
2018-11-10T16:01:20.244Z,10.20
2018-11-10T16:04:24.389Z,8.80
2018-11-10T16:07:28.517Z,9.57
2018-11-10T16:10:32.661Z,10.87
2018-11-10T16:13:36.790Z,10.60
2018-11-10T16:16:40.918Z,11.87
2018-11-10T16:19:45.063Z,20.70
2018-11-10T16:22:50.453Z,12.60
2018-11-10T16:25:54.580Z,11.87
2018-11-10T16:28:58.719Z,13.37
2018-11-10T16:32:02.842Z,13.17
2018-11-10T16:35:07.640Z,15.30
2018-11-10T16:38:11.785Z,15.00
2018-11-10T16:41:15.910Z,13.13
2018-11-10T16:44:20.065Z,12.87
2018-11-10T16:47:24.218Z,16.30
2018-11-10T16:50:28.350Z,16.33
2018-11-10T16:53:32.519Z,12.53
2018-11-10T16:56:36.646Z,16.50
2018-11-10T16:59:40.780Z,17.43
2018-11-10T17:02:44.927Z,16.20
2018-11-10T17:05:49.050Z,15.10
2018-11-10T17:08:53.282Z,22.77
2018-11-10T17:11:57.331Z,18.13
2018-11-10T17:15:01.472Z,15.67
2018-11-10T17:18:05.631Z,16.10
2018-11-10T17:21:09.773Z,17.83
2018-11-10T17:24:13.912Z,14.80
2018-11-10T17:27:18.069Z,18.63
2018-11-10T17:30:22.411Z,14.87
2018-11-10T17:33:26.451Z,15.57
2018-11-10T17:36:30.554Z,15.97
2018-11-10T17:39:34.776Z,18.00
2018-11-10T17:42:38.873Z,17.70
2018-11-10T17:45:42.987Z,21.30
2018-11-10T17:48:47.099Z,15.77
2018-11-10T17:51:51.243Z,17.53
2018-11-10T17:54:55.385Z,17.60
2018-11-10T17:57:59.639Z,14.10
2018-11-10T18:01:03.563Z,14.13
2018-11-10T18:04:07.695Z,16.33
2018-11-10T18:07:11.799Z,18.13
2018-11-10T18:10:17.186Z,17.20
2018-11-10T18:13:21.316Z,19.70
2018-11-10T18:16:25.466Z,14.83
2018-11-10T18:19:29.602Z,18.77
2018-11-10T18:22:33.740Z,15.70
2018-11-10T18:25:37.847Z,17.07
2018-11-10T18:28:41.968Z,15.17
2018-11-10T18:31:46.075Z,15.93
2018-11-10T18:34:50.222Z,15.30
2018-11-10T18:37:54.364Z,14.43
2018-11-10T18:40:58.490Z,12.87
2018-11-10T18:44:02.642Z,13.13
2018-11-10T18:47:06.890Z,15.67
2018-11-10T18:50:13.466Z,16.97
2018-11-10T18:53:17.623Z,22.53
2018-11-10T18:56:21.763Z,16.50
2018-11-10T18:59:25.899Z,18.50
2018-11-10T19:02:30.036Z,20.90
2018-11-10T19:05:34.182Z,22.50
2018-11-10T19:08:38.325Z,27.17
2018-11-10T19:11:42.447Z,25.00
2018-11-10T19:14:46.579Z,25.43
2018-11-10T19:17:50.806Z,21.87
2018-11-10T19:20:55.044Z,23.13
2018-11-10T19:23:59.194Z,24.93
2018-11-10T19:27:03.310Z,26.20
2018-11-10T19:30:11.222Z,22.57
2018-11-10T19:33:15.354Z,25.53
2018-11-10T19:36:19.495Z,25.83
2018-11-10T19:39:23.623Z,22.83
2018-11-10T19:42:27.734Z,24.40
2018-11-10T19:45:31.859Z,24.50
2018-11-10T19:48:36.127Z,24.37
2018-11-10T19:51:40.536Z,21.13
2018-11-10T19:54:44.359Z,24.67
2018-11-10T19:57:48.490Z,26.90
2018-11-10T20:00:52.714Z,24.97
2018-11-10T20:03:56.723Z,27.37
2018-11-10T20:07:00.829Z,25.70
2018-11-10T20:10:05.203Z,21.93
2018-11-10T20:13:09.418Z,24.47
2018-11-10T20:16:13.459Z,26.13
2018-11-10T20:19:17.590Z,24.17
2018-11-10T20:22:21.717Z,20.77
2018-11-10T20:25:25.842Z,20.63
2018-11-10T20:28:29.963Z,21.30
2018-11-10T20:31:34.086Z,26.60
2018-11-10T20:34:38.230Z,18.03
2018-11-10T20:37:43.003Z,23.80
2018-11-10T20:40:47.142Z,24.00
2018-11-10T20:43:51.270Z,27.37
2018-11-10T20:46:55.399Z,28.10
2018-11-10T20:49:59.736Z,23.07
2018-11-10T20:53:03.855Z,24.57
2018-11-10T20:56:07.969Z,23.10
2018-11-10T20:59:12.089Z,23.30
2018-11-10T21:02:16.191Z,22.13
2018-11-10T21:05:20.322Z,27.83
2018-11-10T21:08:24.467Z,24.67
2018-11-10T21:11:28.590Z,23.93
2018-11-10T21:14:32.723Z,23.87
2018-11-10T21:17:37.082Z,24.67
2018-11-10T21:20:41.550Z,23.20
2018-11-10T21:23:45.669Z,20.87
2018-11-10T21:26:49.780Z,21.83
2018-11-10T21:29:53.979Z,23.63
2018-11-10T21:32:58.047Z,23.60
2018-11-10T21:36:02.199Z,24.30
2018-11-10T21:39:09.819Z,25.37
2018-11-10T21:42:13.963Z,25.03
2018-11-10T21:45:18.482Z,20.70
2018-11-10T21:48:22.636Z,24.13
2018-11-10T21:51:26.795Z,24.37
2018-11-10T21:54:30.931Z,23.23
2018-11-10T21:57:35.066Z,21.13
2018-11-10T22:00:39.215Z,22.50
2018-11-10T22:03:43.338Z,22.70
2018-11-10T22:06:47.487Z,22.17
2018-11-10T22:09:51.665Z,21.37
2018-11-10T22:12:55.783Z,21.03
2018-11-10T22:16:00.043Z,19.77
2018-11-10T22:19:04.063Z,23.40
2018-11-10T22:22:08.206Z,23.50
2018-11-10T22:25:13.175Z,23.70
2018-11-10T22:28:17.322Z,20.27
2018-11-10T22:31:21.563Z,22.10
2018-11-10T22:34:25.703Z,23.03
2018-11-10T22:37:29.811Z,21.87
2018-11-10T22:40:33.936Z,22.37
2018-11-10T22:43:38.050Z,18.60
2018-11-10T22:46:42.169Z,20.20
2018-11-10T22:49:46.510Z,19.30
2018-11-10T22:52:50.669Z,19.87
2018-11-10T22:55:54.797Z,20.70
2018-11-10T22:58:58.927Z,22.53
2018-11-10T23:02:03.059Z,21.00
2018-11-10T23:05:07.843Z,23.63
2018-11-10T23:08:11.963Z,23.30
2018-11-10T23:11:16.085Z,24.13
2018-11-10T23:14:20.219Z,19.13
2018-11-10T23:17:24.323Z,23.17
2018-11-10T23:20:28.457Z,20.77
2018-11-10T23:23:32.641Z,19.50
2018-11-10T23:26:36.707Z,19.87
2018-11-10T23:29:40.827Z,21.43
2018-11-10T23:32:44.955Z,19.47
2018-11-10T23:35:49.091Z,20.63
2018-11-10T23:38:53.217Z,21.03
2018-11-10T23:41:57.359Z,19.30
2018-11-10T23:45:01.507Z,20.20
2018-11-10T23:48:06.081Z,18.80
2018-11-10T23:51:10.225Z,18.53
2018-11-10T23:54:14.412Z,21.27
2018-11-10T23:57:18.510Z,18.63
